Time;durP1;ratioP1;P1;durP2;ratioP2;P2;SDS_P1;SDS_P2;PMS_P1;PMS_P2;Temp;Humidity;BMP_temperature;BMP_pressure;BME280_temperature;BME280_humidity;BME280_pressure;Samples;Min_cycle;Max_cycle;Signal;HPM_P1;HPM_P2
2022/04/12 00:00:00;;;;;;;3.47;3.17;;;;;;;7.01;59.26;100054.25;5054214;28;20197;-61
2022/04/12 00:02:28;;;;;;;3.43;3.13;;;;;;;7.00;58.70;100057.88;5054397;28;20192;-61
2022/04/12 00:04:54;;;;;;;3.47;3.27;;;;;;;7.10;58.65;100058.56;5054496;28;20195;-61
2022/04/12 00:07:21;;;;;;;3.53;3.23;;;;;;;6.99;58.92;100063.31;5054088;28;20262;-61
2022/04/12 00:09:48;;;;;;;5.27;3.00;;;;;;;7.10;58.47;100057.75;5053842;28;20193;-61
2022/04/12 00:12:15;;;;;;;4.40;3.27;;;;;;;7.10;58.70;100057.75;5053796;28;20231;-62
2022/04/12 00:14:42;;;;;;;3.43;3.23;;;;;;;7.12;58.20;100058.41;5054441;28;20286;-61
2022/04/12 00:19:55;;;;;;;3.80;3.50;;;;;;;7.18;58.09;100055.13;5053812;28;20179;-62
2022/04/12 00:22:21;;;;;;;3.97;3.67;;;;;;;7.07;57.91;100052.78;5053950;28;20286;-62
2022/04/12 00:24:48;;;;;;;3.57;3.27;;;;;;;6.98;58.39;100051.09;5053526;28;20654;-61
2022/04/12 00:27:15;;;;;;;3.90;3.70;;;;;;;6.99;57.90;100055.38;5054028;28;20201;-61
2022/04/12 00:29:41;;;;;;;3.30;3.10;;;;;;;7.03;58.05;100051.44;5053806;28;20196;-61
2022/04/12 00:32:10;;;;;;;3.57;3.37;;;;;;;6.93;58.49;100050.72;5054042;28;20193;-61
2022/04/12 00:34:37;;;;;;;4.03;3.73;;;;;;;6.97;57.79;100044.97;5053304;28;20250;-61
2022/04/12 00:37:04;;;;;;;3.57;3.37;;;;;;;6.92;58.13;100042.00;5053149;28;20235;-61
2022/04/12 00:39:30;;;;;;;3.30;3.13;;;;;;;7.04;58.19;100047.81;5053555;28;20191;-61
2022/04/12 00:41:57;;;;;;;2.70;2.60;;;;;;;7.07;58.43;100044.84;5053828;28;20250;-61
2022/04/12 00:44:24;;;;;;;3.10;3.00;;;;;;;6.97;57.92;100047.63;5054349;28;20279;-61
2022/04/12 00:46:51;;;;;;;3.43;3.20;;;;;;;6.85;58.55;100048.88;5053440;28;20197;-61
2022/04/12 00:49:19;;;;;;;4.40;3.03;;;;;;;6.84;58.66;100049.03;5053697;28;20193;-61
2022/04/12 00:51:46;;;;;;;3.23;3.13;;;;;;;6.87;58.33;100051.38;5053602;28;20270;-61
2022/04/12 00:54:13;;;;;;;3.10;2.90;;;;;;;6.75;59.10;100044.72;5052971;28;20680;-61
2022/04/12 00:56:40;;;;;;;2.70;2.60;;;;;;;6.65;59.63;100051.94;5054092;28;20198;-61
2022/04/12 00:59:08;;;;;;;2.97;2.87;;;;;;;6.60;59.39;100048.91;5053101;28;20224;-61
2022/04/12 01:01:34;;;;;;;3.67;3.37;;;;;;;6.55;59.48;100043.28;5052793;28;20227;-60
2022/04/12 01:04:01;;;;;;;3.63;3.23;;;;;;;6.50;59.38;100038.50;5052808;28;20249;-61
2022/04/12 01:06:29;;;;;;;3.17;3.07;;;;;;;6.55;59.77;100045.94;5053624;28;20215;-62
2022/04/12 01:08:56;;;;;;;3.60;3.37;;;;;;;6.51;59.93;100039.31;5052720;28;20577;-62
2022/04/12 01:11:23;;;;;;;3.43;3.17;;;;;;;6.56;59.81;100037.03;5039978;28;20208;-62
2022/04/12 01:13:49;;;;;;;3.40;3.20;;;;;;;6.54;59.79;100033.72;5032523;28;20232;-62
2022/04/12 01:16:17;;;;;;;4.10;2.67;;;;;;;6.50;59.75;100032.38;5033830;28;20191;-61
2022/04/12 01:18:43;;;;;;;5.33;3.47;;;;;;;6.51;59.92;100036.69;5033098;28;20217;-62
2022/04/12 01:21:10;;;;;;;3.43;3.33;;;;;;;6.45;60.33;100034.69;5032876;28;20193;-61
2022/04/12 01:23:46;;;;;;;2.70;2.60;;;;;;;6.54;60.20;100031.09;5032578;28;20209;-61
2022/04/12 01:26:14;;;;;;;3.33;3.07;;;;;;;6.42;60.52;100029.72;5033137;28;20185;-61
2022/04/12 01:28:44;;;;;;;3.00;2.83;;;;;;;6.46;59.87;100031.03;5032457;28;20200;-61
2022/04/12 01:31:11;;;;;;;3.87;3.67;;;;;;;6.42;60.60;100034.97;5032366;28;20225;-60
2022/04/12 01:33:37;;;;;;;5.00;3.23;;;;;;;6.43;59.85;100032.19;5032385;28;20200;-61
2022/04/12 01:36:04;;;;;;;3.30;3.10;;;;;;;6.36;60.62;100035.63;5032889;28;20254;-61
2022/04/12 01:38:31;;;;;;;3.43;3.23;;;;;;;6.31;60.81;100032.59;5033352;28;20224;-61
2022/04/12 01:40:58;;;;;;;3.77;3.57;;;;;;;6.30;61.22;100033.59;5032607;28;20253;-62
2022/04/12 01:43:26;;;;;;;3.50;3.30;;;;;;;6.31;61.00;100032.59;5032163;28;20197;-61
2022/04/12 01:45:53;;;;;;;3.67;3.47;;;;;;;6.29;61.00;100037.22;5032463;28;20259;-62
2022/04/12 01:48:19;;;;;;;3.83;3.53;;;;;;;6.27;61.25;100032.09;5032140;28;20265;-62
2022/04/12 01:50:46;;;;;;;4.40;4.00;;;;;;;6.25;61.38;100027.97;5032104;28;20251;-62
2022/04/12 01:53:13;;;;;;;4.30;3.90;;;;;;;6.09;62.05;100031.31;5032159;28;20193;-61
2022/04/12 01:55:39;;;;;;;4.07;3.77;;;;;;;6.04;61.82;100035.41;5032546;28;20196;-62
2022/04/12 01:58:06;;;;;;;4.50;4.10;;;;;;;6.09;61.65;100041.03;5032194;28;20220;-64
2022/04/12 02:00:35;;;;;;;8.07;4.03;;;;;;;6.13;61.89;100039.75;5032307;28;20327;-62
2022/04/12 02:03:01;;;;;;;5.27;4.77;;;;;;;6.12;62.01;100038.09;5031679;28;20585;-62
2022/04/12 02:05:28;;;;;;;4.60;4.20;;;;;;;6.06;61.85;100033.44;5032615;28;20250;-61
2022/04/12 02:07:55;;;;;;;4.40;4.10;;;;;;;6.17;61.97;100043.72;5032490;28;20201;-61
2022/04/12 02:10:22;;;;;;;5.30;4.83;;;;;;;6.06;61.92;100042.19;5031885;28;20681;-61
2022/04/12 02:12:50;;;;;;;5.50;5.00;;;;;;;5.96;62.63;100040.63;5031790;28;20193;-61
2022/04/12 02:15:17;;;;;;;5.13;4.60;;;;;;;5.93;62.97;100035.63;5032013;28;20701;-61
2022/04/12 02:17:45;;;;;;;6.13;5.47;;;;;;;5.91;62.65;100032.34;5032016;28;20223;-61
2022/04/12 02:20:12;;;;;;;6.33;5.73;;;;;;;5.88;62.74;100030.00;5032890;28;20193;-61
2022/04/12 02:22:38;;;;;;;7.77;6.97;;;;;;;5.77;62.87;100031.84;5031780;28;20255;-61
2022/04/12 02:25:06;;;;;;;10.63;9.63;;;;;;;5.88;63.12;100035.28;5031743;28;20227;-62
2022/04/12 02:27:33;;;;;;;8.47;7.70;;;;;;;5.88;62.86;100036.09;5032022;28;20200;-62
2022/04/12 02:29:59;;;;;;;8.73;7.13;;;;;;;5.91;63.56;100034.97;5031731;28;20193;-62
2022/04/12 02:32:26;;;;;;;7.63;6.73;;;;;;;5.98;63.22;100030.72;5032189;28;20685;-63
2022/04/12 02:34:57;;;;;;;6.07;5.57;;;;;;;5.94;63.27;100029.38;5031988;28;20243;-63
2022/04/12 02:37:24;;;;;;;6.33;5.80;;;;;;;5.85;63.65;100022.41;5033044;28;20607;-62
2022/04/12 02:39:51;;;;;;;5.83;5.43;;;;;;;5.81;63.48;100026.31;5035593;28;20228;-62
2022/04/12 02:42:17;;;;;;;5.23;4.93;;;;;;;5.71;63.62;100024.56;5035581;28;20255;-62
2022/04/12 02:44:44;;;;;;;5.47;5.00;;;;;;;5.65;64.00;100030.44;5035829;28;20555;-62
2022/04/12 02:47:11;;;;;;;5.40;4.93;;;;;;;5.57;64.63;100026.91;5036342;28;20336;-62
2022/04/12 02:49:37;;;;;;;6.13;5.60;;;;;;;5.68;64.13;100027.50;5036570;28;20196;-62
2022/04/12 02:52:08;;;;;;;5.07;4.77;;;;;;;5.57;64.14;100033.00;5035645;28;20189;-62
2022/04/12 02:54:35;;;;;;;4.60;4.30;;;;;;;5.60;64.66;100037.16;5035337;28;20198;-62
2022/04/12 02:57:01;;;;;;;4.60;4.40;;;;;;;5.71;63.97;100040.38;5035301;28;20622;-62
2022/04/12 02:59:28;;;;;;;7.40;4.43;;;;;;;5.87;63.77;100044.19;5036316;28;20221;-62
2022/04/12 03:01:55;;;;;;;5.20;4.73;;;;;;;5.73;63.97;100045.50;5035167;28;20195;-62
2022/04/12 03:04:21;;;;;;;6.00;4.60;;;;;;;5.73;63.78;100043.69;5035492;28;20263;-62
2022/04/12 03:06:48;;;;;;;5.20;4.80;;;;;;;5.82;63.88;100035.88;5035198;28;20639;-62
2022/04/12 03:09:18;;;;;;;5.17;4.70;;;;;;;5.74;63.89;100040.09;5035065;28;20198;-62
2022/04/12 03:11:44;;;;;;;4.90;4.60;;;;;;;5.73;64.04;100037.59;5035765;28;20193;-62
2022/04/12 03:14:11;;;;;;;5.63;5.23;;;;;;;5.79;63.27;100042.25;5035161;28;20221;-62
2022/04/12 03:16:37;;;;;;;4.93;4.37;;;;;;;5.72;63.56;100039.41;5034862;28;20659;-62
2022/04/12 03:19:04;;;;;;;6.07;4.33;;;;;;;5.77;63.08;100034.50;5035568;28;20229;-62
2022/04/12 03:21:31;;;;;;;5.13;4.30;;;;;;;5.70;63.25;100036.09;5034777;28;20668;-62
2022/04/12 03:23:58;;;;;;;4.07;3.77;;;;;;;5.67;63.67;100043.47;5035070;28;20229;-62
2022/04/12 03:26:26;;;;;;;4.20;3.90;;;;;;;5.78;63.34;100036.16;5035046;28;20192;-62
2022/04/12 03:28:53;;;;;;;4.63;4.00;;;;;;;5.82;62.95;100035.88;5034650;28;20670;-63
2022/04/12 03:31:20;;;;;;;4.63;4.20;;;;;;;5.75;62.74;100036.47;5035757;28;20259;-62
2022/04/12 03:33:46;;;;;;;3.77;3.57;;;;;;;5.87;62.64;100038.91;5034866;28;20280;-61
2022/04/12 03:36:13;;;;;;;4.63;4.23;;;;;;;5.92;62.00;100045.34;5034847;28;20197;-62
2022/04/12 03:38:48;;;;;;;4.70;4.03;;;;;;;5.90;61.85;100043.84;5034437;28;20360;-61
2022/04/12 03:41:14;;;;;;;7.60;4.10;;;;;;;5.83;62.26;100040.19;5034439;28;20666;-62
2022/04/12 03:43:42;;;;;;;5.80;4.10;;;;;;;5.92;61.44;100041.91;5034536;28;20246;-62
2022/04/12 03:46:09;;;;;;;10.27;4.43;;;;;;;6.03;61.40;100044.28;5034240;28;20189;-63
2022/04/12 03:48:36;;;;;;;4.20;3.90;;;;;;;6.10;60.76;100050.59;5033818;28;20197;-61
2022/04/12 03:51:02;;;;;;;4.70;4.03;;;;;;;6.13;60.88;100045.03;5034198;28;20240;-62
2022/04/12 03:53:29;;;;;;;4.43;4.03;;;;;;;6.20;60.41;100051.34;5034232;28;20666;-62
2022/04/12 03:55:56;;;;;;;6.27;3.77;;;;;;;6.29;60.20;100047.78;5034742;28;20193;-62
2022/04/12 03:58:23;;;;;;;5.60;4.13;;;;;;;6.40;59.15;100047.53;5034269;28;20224;-62
2022/04/12 04:00:51;;;;;;;4.40;4.00;;;;;;;6.63;59.00;100053.91;5034273;28;20189;-62
2022/04/12 04:03:18;;;;;;;4.20;3.90;;;;;;;6.99;58.00;100066.78;5034064;28;20197;-63
2022/04/12 04:05:46;;;;;;;4.60;4.17;;;;;;;7.30;57.00;100070.50;5034320;28;20197;-63
2022/04/12 04:08:12;;;;;;;5.20;4.70;;;;;;;7.60;56.29;100067.25;5033979;28;20197;-63
2022/04/12 04:10:39;;;;;;;6.63;4.10;;;;;;;7.78;54.35;100067.13;5033905;28;20737;-63
2022/04/12 04:13:08;;;;;;;9.13;4.83;;;;;;;7.94;55.03;100069.78;5034222;28;20193;-61
2022/04/12 04:15:36;;;;;;;8.27;5.17;;;;;;;8.06;57.47;100065.81;5033841;28;20229;-62
2022/04/12 04:18:04;;;;;;;7.30;5.57;;;;;;;8.18;54.11;100077.72;5033984;28;20654;-61
2022/04/12 04:20:31;;;;;;;8.80;6.13;;;;;;;8.04;55.64;100092.44;5033986;28;20274;-61
2022/04/12 04:22:57;;;;;;;11.57;5.07;;;;;;;8.33;53.58;100081.38;5048154;28;20197;-64
2022/04/12 04:25:24;;;;;;;4.27;3.97;;;;;;;8.73;51.54;100083.94;5053891;28;20189;-63
2022/04/12 04:27:52;;;;;;;5.20;4.20;;;;;;;9.06;50.16;100090.75;5053788;28;20278;-64
2022/04/12 04:30:20;;;;;;;4.70;4.30;;;;;;;9.35;49.58;100093.66;5054357;28;20215;-67
2022/04/12 04:32:47;;;;;;;7.33;4.10;;;;;;;10.26;53.61;100061.66;5053669;28;20192;-61
2022/04/12 04:35:15;;;;;;;6.77;4.93;;;;;;;10.67;46.02;100091.31;5053409;28;20669;-63
2022/04/12 04:37:43;;;;;;;5.23;3.70;;;;;;;10.93;44.85;100107.63;5053495;28;20197;-63
2022/04/12 04:40:11;;;;;;;4.30;3.70;;;;;;;10.87;44.49;100103.84;5053782;28;20224;-63
2022/04/12 04:42:37;;;;;;;6.47;4.57;;;;;;;11.03;44.05;100102.88;5053000;28;20284;-63
2022/04/12 04:45:05;;;;;;;5.00;3.97;;;;;;;11.97;44.01;100102.78;5053770;28;20250;-63
2022/04/12 04:47:32;;;;;;;17.23;4.07;;;;;;;12.97;42.71;100103.19;5053417;28;20196;-64
2022/04/12 04:49:58;;;;;;;7.90;3.77;;;;;;;13.27;38.10;100115.25;5053267;28;20257;-64
2022/04/12 04:52:27;;;;;;;5.13;3.93;;;;;;;13.30;39.24;100108.69;5052990;28;20230;-64
2022/04/12 04:54:53;;;;;;;6.30;3.80;;;;;;;13.90;37.90;100116.72;5052465;28;20245;-66
2022/04/12 04:57:20;;;;;;;5.37;3.03;;;;;;;14.03;36.83;100106.06;5052385;28;20196;-65
2022/04/12 04:59:47;;;;;;;4.23;3.20;;;;;;;13.96;38.08;100107.88;5051319;28;20270;-64
2022/04/12 05:02:13;;;;;;;2.80;2.60;;;;;;;14.56;36.56;100107.75;5052273;28;20281;-64
2022/04/12 05:04:40;;;;;;;4.17;3.00;;;;;;;14.98;35.50;100124.16;5052098;28;20193;-66
2022/04/12 05:07:07;;;;;;;3.23;3.03;;;;;;;15.18;35.64;100119.59;5052194;28;20189;-65
2022/04/12 05:09:35;;;;;;;5.13;2.57;;;;;;;14.75;34.55;100128.31;5052581;28;20200;-65
2022/04/12 05:12:01;;;;;;;3.43;3.13;;;;;;;14.54;36.03;100124.00;5053174;28;20673;-64
2022/04/12 05:14:28;;;;;;;4.50;2.83;;;;;;;15.34;33.90;100129.88;5052712;28;20803;-64
2022/04/12 05:16:54;;;;;;;3.23;2.60;;;;;;;14.99;34.66;100131.16;5052599;28;20737;-64
2022/04/12 05:19:21;;;;;;;4.50;2.87;;;;;;;15.40;33.88;100137.06;5053576;28;20221;-64
2022/04/12 05:21:48;;;;;;;4.20;3.37;;;;;;;15.76;33.12;100134.63;5052475;28;20243;-64
2022/04/12 05:24:14;;;;;;;13.23;3.87;;;;;;;16.08;32.78;100137.38;5052250;28;20193;-64
2022/04/12 05:26:43;;;;;;;9.43;3.40;;;;;;;16.34;32.46;100139.84;5051985;28;20623;-63
2022/04/12 05:29:09;;;;;;;8.43;3.80;;;;;;;16.42;32.01;100129.72;5052296;28;20196;-64
2022/04/12 05:31:36;;;;;;;3.37;3.17;;;;;;;15.67;33.13;100135.09;5050852;28;20193;-64
2022/04/12 05:34:02;;;;;;;15.57;3.50;;;;;;;15.43;36.56;100130.44;5041051;28;20192;-63
2022/04/12 05:36:29;;;;;;;4.23;3.10;;;;;;;15.71;33.12;100137.16;5046028;28;20713;-63
2022/04/12 05:38:56;;;;;;;4.30;2.80;;;;;;;15.87;33.54;100135.81;5032402;28;20228;-64
2022/04/12 05:41:23;;;;;;;5.07;2.90;;;;;;;16.07;33.76;100130.34;5043251;28;20196;-64
2022/04/12 05:43:51;;;;;;;3.73;3.40;;;;;;;16.52;32.42;100137.25;5052033;28;20224;-65
2022/04/12 05:46:18;;;;;;;17.23;4.23;;;;;;;17.35;31.82;100134.00;5052633;28;20192;-65
2022/04/12 05:48:44;;;;;;;7.40;3.60;;;;;;;17.27;30.84;100131.63;5050792;28;20192;-65
2022/04/12 05:51:11;;;;;;;4.47;3.47;;;;;;;17.23;30.27;100127.72;5032033;28;20193;-65
2022/04/12 05:53:38;;;;;;;4.23;3.30;;;;;;;16.96;30.65;100126.34;5032149;28;20556;-64
2022/04/12 05:56:05;;;;;;;7.93;3.43;;;;;;;17.31;31.35;100124.75;5032367;28;20622;-64
2022/04/12 05:58:35;;;;;;;4.47;2.60;;;;;;;16.75;29.87;100124.09;5032053;28;20231;-64
2022/04/12 06:01:03;;;;;;;12.37;3.13;;;;;;;16.53;30.73;100129.00;5032163;28;20190;-64
2022/04/12 06:03:29;;;;;;;2.97;2.60;;;;;;;16.35;31.15;100122.72;5031980;28;20339;-64
2022/04/12 06:05:56;;;;;;;4.23;2.60;;;;;;;16.62;31.37;100118.84;5034266;28;20197;-63
2022/04/12 06:08:23;;;;;;;9.37;3.00;;;;;;;16.61;30.70;100127.94;5052108;28;20196;-63
2022/04/12 06:10:49;;;;;;;5.77;3.20;;;;;;;15.96;32.23;100120.31;5051597;28;20197;-63
2022/04/12 06:13:16;;;;;;;5.00;3.10;;;;;;;16.15;31.59;100127.41;5051438;28;20669;-63
2022/04/12 06:15:43;;;;;;;6.07;3.77;;;;;;;16.17;31.81;100130.69;5051931;28;20602;-63
2022/04/12 06:18:12;;;;;;;2.93;2.63;;;;;;;15.28;32.89;100125.31;5051949;28;20201;-63
2022/04/12 06:20:39;;;;;;;4.27;3.37;;;;;;;15.29;32.95;100124.31;5051708;28;20228;-63
2022/04/12 06:23:06;;;;;;;7.07;3.90;;;;;;;15.23;35.05;100117.09;5052033;28;20196;-65
2022/04/12 06:25:33;;;;;;;5.67;3.40;;;;;;;15.24;34.04;100118.75;5032747;28;20197;-65
2022/04/12 06:28:00;;;;;;;4.87;3.10;;;;;;;15.52;33.45;100127.31;5030481;28;20201;-65
2022/04/12 06:30:30;;;;;;;3.60;2.87;;;;;;;15.51;33.78;100128.38;5030068;28;20201;-65
2022/04/12 06:32:57;;;;;;;6.73;2.57;;;;;;;15.92;40.03;100103.03;5050406;28;20242;-64
2022/04/12 06:35:25;;;;;;;3.67;3.40;;;;;;;16.21;32.31;100127.34;5052302;28;20543;-64
2022/04/12 06:37:53;;;;;;;12.07;3.03;;;;;;;16.80;35.71;100118.88;5051644;28;20192;-64
2022/04/12 06:40:21;;;;;;;11.17;3.23;;;;;;;17.60;32.38;100130.19;5051583;28;20212;-65
2022/04/12 06:42:48;;;;;;;6.00;2.50;;;;;;;17.11;31.57;100130.31;5051605;28;20249;-66
2022/04/12 06:45:15;;;;;;;4.43;2.73;;;;;;;16.97;32.07;100134.19;5051414;28;20193;-66
2022/04/12 06:47:42;;;;;;;27.53;4.30;;;;;;;16.59;32.44;100135.38;5051283;28;20200;-66
2022/04/12 06:50:11;;;;;;;5.63;3.13;;;;;;;16.10;32.38;100136.09;5051227;28;20247;-65
2022/04/12 06:52:39;;;;;;;5.63;2.90;;;;;;;15.84;33.17;100138.91;5051291;28;20197;-64
2022/04/12 06:55:06;;;;;;;7.23;2.77;;;;;;;15.77;34.11;100122.88;5051415;28;20200;-64
2022/04/12 06:57:34;;;;;;;4.80;2.57;;;;;;;15.88;32.81;100142.00;5048089;28;20585;-67
2022/04/12 07:00:01;;;;;;;18.07;3.57;;;;;;;16.25;33.07;100151.88;5050649;28;20267;-68
2022/04/12 07:02:28;;;;;;;3.00;2.83;;;;;;;16.10;31.75;100156.72;5050536;28;20193;-69
2022/04/12 07:04:55;;;;;;;2.83;2.63;;;;;;;16.08;33.30;100156.13;5051228;28;20197;-68
2022/04/12 07:07:21;;;;;;;3.13;2.40;;;;;;;16.37;37.40;100147.47;5050750;28;20189;-68
2022/04/12 07:09:49;;;;;;;4.07;2.57;;;;;;;17.58;33.77;100148.41;5050788;28;20662;-71
2022/04/12 07:12:16;;;;;;;3.40;2.50;;;;;;;18.06;29.52;100162.69;5051097;28;20716;-69
2022/04/12 07:14:43;;;;;;;4.93;2.70;;;;;;;17.31;30.11;100162.34;5050508;28;20228;-71
2022/04/12 07:17:10;;;;;;;30.43;4.37;;;;;;;17.29;30.49;100159.03;5050792;28;20199;-70
2022/04/12 07:19:36;;;;;;;7.13;3.13;;;;;;;17.17;29.52;100163.50;5051279;28;20224;-70
2022/04/12 07:22:04;;;;;;;3.13;2.00;;;;;;;16.60;29.80;100169.19;5050831;28;20257;-69
2022/04/12 07:24:31;;;;;;;3.07;2.30;;;;;;;16.59;31.69;100157.66;5053863;28;20224;-70
2022/04/12 07:26:59;;;;;;;2.57;2.37;;;;;;;17.04;33.04;100155.59;5054458;28;20211;-69
2022/04/12 07:29:26;;;;;;;20.13;3.23;;;;;;;18.06;28.24;100161.84;5053900;28;20662;-68
2022/04/12 07:31:53;;;;;;;3.03;2.33;;;;;;;17.95;27.65;100170.69;5054207;28;20188;-68
2022/04/12 07:34:19;;;;;;;1.80;1.70;;;;;;;16.89;27.27;100168.53;5054593;28;20197;-71
2022/04/12 07:36:50;;;;;;;2.63;2.20;;;;;;;17.09;27.66;100139.63;5054107;28;20219;-68
2022/04/12 07:39:17;;;;;;;6.90;2.60;;;;;;;17.67;28.48;100135.47;5053983;28;20594;-68
2022/04/12 07:41:45;;;;;;;3.33;2.30;;;;;;;17.75;27.79;100124.41;5052876;28;20246;-70
2022/04/12 07:44:13;;;;;;;13.30;2.60;;;;;;;17.18;28.15;100140.97;5055234;28;20211;-68
2022/04/12 07:46:40;;;;;;;4.13;2.40;;;;;;;17.24;31.23;100124.00;5054569;28;20197;-69
2022/04/12 07:49:07;;;;;;;13.90;2.93;;;;;;;18.58;30.03;100123.44;5053393;28;20747;-69
2022/04/12 07:51:33;;;;;;;6.43;2.50;;;;;;;18.48;25.85;100139.31;5054356;28;20197;-68
2022/04/12 07:54:02;;;;;;;9.10;3.07;;;;;;;18.12;26.33;100125.97;5053491;28;20318;-68
2022/04/12 07:56:29;;;;;;;6.07;2.67;;;;;;;18.29;26.29;100111.63;5053860;28;20306;-69
2022/04/12 07:58:56;;;;;;;4.50;2.40;;;;;;;18.32;26.90;100115.75;5054242;28;20196;-69
2022/04/12 08:01:24;;;;;;;13.80;2.50;;;;;;;18.31;30.56;100106.03;5054004;28;20294;-66
2022/04/12 08:03:50;;;;;;;11.77;2.63;;;;;;;19.74;30.48;100103.41;5053811;28;20194;-69
2022/04/12 08:06:17;;;;;;;2.40;2.20;;;;;;;20.50;24.61;100114.53;5053739;28;20193;-68
2022/04/12 08:08:44;;;;;;;6.50;2.43;;;;;;;21.13;26.34;100103.34;5053602;28;20733;-70
2022/04/12 08:11:12;;;;;;;2.70;2.13;;;;;;;21.03;23.82;100100.53;5053612;28;20201;-67
2022/04/12 08:13:39;;;;;;;3.73;3.13;;;;;;;19.76;23.93;100114.75;5053401;28;20196;-69
2022/04/12 08:16:08;;;;;;;3.23;2.33;;;;;;;19.28;24.36;100100.84;5053365;28;20189;-70
2022/04/12 08:18:36;;;;;;;3.37;3.17;;;;;;;19.60;24.21;100108.25;5052742;28;20251;-69
2022/04/12 08:21:03;;;;;;;6.17;2.90;;;;;;;19.45;25.03;100099.84;5053024;28;20713;-69
2022/04/12 08:23:30;;;;;;;2.30;2.20;;;;;;;19.30;24.77;100093.34;5053888;28;20188;-67
2022/04/12 08:25:56;;;;;;;4.03;1.80;;;;;;;19.44;28.15;100097.41;5053623;28;20229;-68
2022/04/12 08:28:23;;;;;;;9.63;2.43;;;;;;;20.49;28.92;100083.19;5053392;28;20270;-68
2022/04/12 08:30:50;;;;;;;2.07;1.97;;;;;;;20.75;25.61;100079.84;5053061;28;20199;-69
2022/04/12 08:33:16;;;;;;;6.07;2.40;;;;;;;20.84;25.36;100089.16;5053380;28;20682;-68
2022/04/12 08:35:45;;;;;;;11.10;2.23;;;;;;;21.07;26.81;100069.25;5053279;28;20267;-70
2022/04/12 08:38:11;;;;;;;3.60;2.27;;;;;;;21.00;23.39;100087.50;5053241;28;20232;-70
2022/04/12 08:40:40;;;;;;;3.97;2.47;;;;;;;20.35;23.86;100080.00;5047418;28;20279;-69
2022/04/12 08:43:08;;;;;;;3.20;2.50;;;;;;;20.55;23.87;100084.91;5053141;28;20616;-65
2022/04/12 08:45:37;;;;;;;7.03;2.73;;;;;;;20.01;24.68;100077.50;5053251;28;20189;-67
2022/04/12 08:48:06;;;;;;;3.90;2.53;;;;;;;19.61;27.13;100079.44;5053127;28;20274;-67
2022/04/12 08:50:33;;;;;;;2.97;2.77;;;;;;;19.26;25.97;100078.69;5052962;28;20204;-68
2022/04/12 08:53:02;;;;;;;3.07;2.73;;;;;;;19.21;26.06;100075.88;5052794;28;20193;-68
2022/04/12 08:55:29;;;;;;;6.00;2.70;;;;;;;18.86;26.03;100067.00;5052897;28;20739;-66
2022/04/12 08:57:57;;;;;;;4.50;2.57;;;;;;;18.60;26.26;100075.56;5052663;28;20736;-67
2022/04/12 09:00:23;;;;;;;2.20;2.10;;;;;;;18.51;26.33;100055.44;5052654;28;20663;-66
2022/04/12 09:02:57;;;;;;;5.10;2.67;;;;;;;18.49;26.04;100050.28;5052828;28;20199;-68
2022/04/12 09:05:24;;;;;;;2.53;2.10;;;;;;;18.33;26.35;100058.22;5052338;28;20197;-67
2022/04/12 09:07:51;;;;;;;2.60;2.43;;;;;;;17.79;26.86;100053.03;5052426;28;20255;-66
2022/04/12 09:10:25;;;;;;;2.57;2.40;;;;;;;17.92;27.13;100052.88;5052586;28;20198;-66
2022/04/12 09:12:52;;;;;;;2.70;2.60;;;;;;;18.15;26.99;100045.69;5052640;28;20205;-66
2022/04/12 09:15:22;;;;;;;9.50;2.30;;;;;;;18.50;26.89;100035.00;5052957;28;20325;-70
2022/04/12 09:17:49;;;;;;;9.17;2.70;;;;;;;18.45;26.87;100042.91;5052795;28;20549;-66
2022/04/12 09:20:19;;;;;;;10.07;2.97;;;;;;;18.27;26.58;100051.06;5052425;28;20311;-68
2022/04/12 09:22:46;;;;;;;7.07;2.20;;;;;;;18.78;28.14;100027.03;5052278;28;20196;-68
2022/04/12 09:25:15;;;;;;;4.63;2.10;;;;;;;19.19;26.14;100040.28;5052708;28;20555;-68
2022/04/12 09:27:49;;;;;;;4.93;2.10;;;;;;;19.44;25.63;100032.75;5052488;28;20191;-68
2022/04/12 09:30:16;;;;;;;11.23;2.80;;;;;;;19.92;26.72;100033.09;5053116;28;20589;-68
2022/04/12 09:32:47;;;;;;;3.47;2.53;;;;;;;20.52;25.20;100032.25;5052347;28;20246;-68
2022/04/12 09:35:14;;;;;;;4.83;2.37;;;;;;;21.14;25.95;100019.34;5051707;28;20253;-69
2022/04/12 09:37:43;;;;;;;2.73;1.80;;;;;;;21.36;25.50;100014.72;5052166;28;20604;-66
2022/04/12 09:40:12;;;;;;;5.63;2.00;;;;;;;21.97;24.52;100025.13;5051851;28;20212;-68
2022/04/12 09:42:50;;;;;;;2.10;2.00;;;;;;;21.91;23.04;100019.94;5052056;28;20281;-69
2022/04/12 09:45:20;;;;;;;3.37;2.00;;;;;;;21.76;24.31;100019.81;5052749;28;20195;-64
2022/04/12 09:47:48;;;;;;;2.30;2.17;;;;;;;21.47;22.38;100013.78;5051744;28;20197;-64
2022/04/12 09:50:15;;;;;;;3.73;2.10;;;;;;;21.41;23.18;100009.41;5050324;28;20669;-62
2022/04/12 09:52:54;;;;;;;2.27;2.07;;;;;;;21.23;23.92;99998.91;5050752;28;20254;-64
2022/04/12 09:55:36;;;;;;;2.83;2.20;;;;;;;21.29;23.21;99997.91;5052447;28;20246;-64
2022/04/12 09:58:06;;;;;;;2.27;2.17;;;;;;;21.27;23.11;99988.44;5049422;28;20254;-62
2022/04/12 10:00:35;;;;;;;7.60;2.13;;;;;;;21.13;23.05;99974.50;5052018;28;20270;-64
2022/04/12 10:03:04;;;;;;;2.77;1.80;;;;;;;21.26;23.29;99984.91;5050708;28;20196;-63
2022/04/12 10:05:32;;;;;;;2.37;1.73;;;;;;;21.33;24.18;99972.00;5050616;28;20285;-68
2022/04/12 10:08:01;;;;;;;4.13;1.73;;;;;;;21.71;23.39;99966.47;5051614;28;20723;-69
2022/04/12 10:10:28;;;;;;;3.43;2.00;;;;;;;21.86;23.01;99974.75;5051360;28;20258;-70
2022/04/12 10:12:57;;;;;;;2.33;1.60;;;;;;;21.75;22.59;99967.59;5051695;28;20204;-67
2022/04/12 10:15:26;;;;;;;2.93;2.40;;;;;;;21.91;22.02;99955.84;5052024;28;20239;-69
2022/04/12 10:17:54;;;;;;;2.60;1.70;;;;;;;21.47;21.86;99959.72;5051586;28;20189;-66
2022/04/12 10:20:21;;;;;;;2.63;1.87;;;;;;;20.96;22.22;99952.13;5052391;28;20220;-69
2022/04/12 10:22:49;;;;;;;4.93;1.90;;;;;;;20.90;23.90;99946.91;5051695;28;20629;-65
2022/04/12 10:25:17;;;;;;;2.63;1.90;;;;;;;20.91;23.52;99941.28;5052201;28;20189;-65
2022/04/12 10:27:44;;;;;;;17.57;2.53;;;;;;;21.16;24.35;99930.75;5052237;28;20192;-64
2022/04/12 10:30:27;;;;;;;8.00;2.10;;;;;;;21.32;24.22;99927.16;5051840;28;20262;-64
2022/04/12 10:33:01;;;;;;;17.37;2.30;;;;;;;21.06;23.79;99927.94;5051458;28;20235;-66
2022/04/12 10:35:28;;;;;;;3.07;2.00;;;;;;;21.28;24.33;99917.91;5045298;28;20571;-65
2022/04/12 10:37:57;;;;;;;4.77;1.70;;;;;;;21.14;22.99;99922.06;5048797;28;20193;-69
2022/04/12 10:40:25;;;;;;;1.80;1.70;;;;;;;21.16;24.03;99914.53;5038907;28;20307;-68
2022/04/12 10:42:55;;;;;;;3.27;1.80;;;;;;;21.01;23.04;99911.66;5051886;28;20622;-67
2022/04/12 10:45:32;;;;;;;2.20;1.90;;;;;;;20.55;22.65;99901.34;5051417;28;20688;-66
2022/04/12 10:48:00;;;;;;;1.80;1.53;;;;;;;20.55;22.25;99906.75;5049789;28;20283;-68
2022/04/12 10:50:27;;;;;;;10.40;2.80;;;;;;;19.47;24.03;99900.19;5049942;28;20696;-67
2022/04/12 10:52:54;;;;;;;5.10;1.97;;;;;;;20.02;24.57;99893.81;5049629;28;20193;-66
2022/04/12 10:55:23;;;;;;;1.63;1.53;;;;;;;20.05;23.58;99889.84;5049244;28;20193;-64
2022/04/12 10:57:51;;;;;;;2.30;2.00;;;;;;;19.95;23.37;99885.09;5048903;28;20691;-66
2022/04/12 11:00:19;;;;;;;1.90;1.80;;;;;;;20.24;23.74;99881.25;5053751;28;20237;-65
2022/04/12 11:02:53;;;;;;;7.00;1.93;;;;;;;19.51;23.59;99887.88;5053257;28;20700;-67
2022/04/12 11:05:53;;;;;;;3.70;2.07;;;;;;;19.79;23.93;99880.53;5053572;28;20183;-66
2022/04/12 11:08:47;;;;;;;3.43;1.77;;;;;;;20.09;24.70;99870.22;4953560;29;20680;-65
2022/04/12 11:11:22;;;;;;;2.30;1.83;;;;;;;20.24;23.18;99861.53;5050341;28;20196;-65
2022/04/12 11:13:49;;;;;;;31.70;5.27;;;;;;;19.66;23.39;99871.97;5053935;28;20198;-68
2022/04/12 11:16:19;;;;;;;2.03;1.83;;;;;;;19.05;24.44;99863.88;5054638;28;20216;-66
2022/04/12 11:18:49;;;;;;;4.80;1.90;;;;;;;19.05;23.21;99866.56;5053299;28;20191;-67
2022/04/12 11:21:17;;;;;;;2.53;2.10;;;;;;;18.96;23.46;99857.25;5054193;28;20285;-67
2022/04/12 11:23:48;;;;;;;2.43;2.10;;;;;;;19.11;24.24;99849.44;5054508;28;20200;-68
2022/04/12 11:26:36;;;;;;;2.23;1.60;;;;;;;18.93;24.28;99846.94;5054889;28;20262;-67
2022/04/12 11:29:06;;;;;;;3.03;2.00;;;;;;;19.19;24.88;99847.16;5054713;28;20195;-66
2022/04/12 11:31:36;;;;;;;2.50;1.73;;;;;;;19.09;23.94;99854.25;5053822;28;20661;-66
2022/04/12 11:34:06;;;;;;;1.83;1.73;;;;;;;18.95;23.51;99845.63;5052442;28;20376;-67